createdAt,value
2022-11-04T00:00:34.117Z,96154.00
2022-11-04T00:03:00.916Z,96158.00
2022-11-04T00:05:27.656Z,96159.00
2022-11-04T00:08:12.738Z,96167.00
2022-11-04T00:10:58.066Z,96169.00
2022-11-04T00:13:24.842Z,96162.00
2022-11-04T00:16:10.137Z,96156.00
2022-11-04T00:18:37.192Z,96165.00
2022-11-04T00:21:22.600Z,96167.00
2022-11-04T00:24:08.017Z,96173.00
2022-11-04T00:26:53.401Z,96176.00
2022-11-04T00:29:20.142Z,96171.00
2022-11-04T00:32:05.416Z,96170.00
2022-11-04T00:34:32.156Z,96169.00
2022-11-04T00:37:00.180Z,96166.00
2022-11-04T00:39:26.907Z,96163.00
2022-11-04T00:41:53.646Z,96175.00
2022-11-04T00:44:20.640Z,96177.00
2022-11-04T00:46:47.364Z,96171.00
2022-11-04T00:49:14.177Z,96172.00
2022-11-04T00:51:40.901Z,96163.00
2022-11-04T00:54:07.808Z,96157.00
2022-11-04T00:56:38.580Z,96156.00
2022-11-04T00:59:07.913Z,96159.00
2022-11-04T01:01:35.938Z,96162.00
2022-11-04T01:04:02.758Z,96162.00
2022-11-04T01:06:29.473Z,96168.00
2022-11-04T01:09:02.937Z,96164.00
2022-11-04T01:11:30.687Z,96171.00
2022-11-04T01:13:58.252Z,96174.00
2022-11-04T01:18:58.334Z,96164.00
2022-11-04T01:21:25.085Z,96162.00
2022-11-04T01:23:51.833Z,96164.00
2022-11-04T01:26:22.031Z,96169.00
2022-11-04T01:28:49.632Z,96162.00
2022-11-04T01:31:23.713Z,96170.00
2022-11-04T01:33:52.534Z,96165.00
2022-11-04T01:36:20.232Z,96170.00
2022-11-04T01:38:47.834Z,96164.00
2022-11-04T01:41:25.219Z,96161.00
2022-11-04T01:43:57.521Z,96167.00
2022-11-04T01:46:51.050Z,96160.00
2022-11-04T01:49:37.964Z,96161.00
2022-11-04T01:52:15.753Z,96161.00
2022-11-04T01:54:46.511Z,96173.00
2022-11-04T01:57:29.995Z,96168.00
2022-11-04T02:00:01.665Z,96161.00
2022-11-04T02:02:28.640Z,96152.00
2022-11-04T02:04:55.838Z,96149.00
2022-11-04T02:07:23.296Z,96147.00
2022-11-04T02:09:50.264Z,96139.00
2022-11-04T02:12:35.344Z,96129.00
2022-11-04T02:15:03.222Z,96132.00
2022-11-04T02:18:03.126Z,96124.00
2022-11-04T02:20:59.632Z,96138.00
2022-11-04T02:24:11.264Z,96142.00
2022-11-04T02:27:11.819Z,96145.00
2022-11-04T02:30:12.488Z,96144.00
2022-11-04T02:33:20.487Z,96142.00
2022-11-04T02:35:58.592Z,96136.00
2022-11-04T02:38:40.200Z,96142.00
2022-11-04T02:41:45.645Z,96142.00
2022-11-04T02:45:11.405Z,96132.00
2022-11-04T02:48:04.756Z,96125.00
2022-11-04T02:51:16.028Z,96126.00
2022-11-04T02:54:07.617Z,96128.00
2022-11-04T02:56:49.381Z,96128.00
2022-11-04T02:59:35.684Z,96131.00
2022-11-04T03:02:20.676Z,96123.00
2022-11-04T03:05:18.466Z,96122.00
2022-11-04T03:09:09.180Z,96129.00
2022-11-04T03:11:37.723Z,96112.00
2022-11-04T03:14:24.988Z,96125.00
2022-11-04T03:16:59.568Z,96137.00
2022-11-04T03:19:53.872Z,96138.00
2022-11-04T03:22:24.069Z,96115.00
2022-11-04T03:24:51.372Z,96105.00
2022-11-04T03:27:57.056Z,96094.00
2022-11-04T03:30:24.611Z,96109.00
2022-11-04T03:33:12.293Z,96105.00
2022-11-04T03:35:39.201Z,96092.00
2022-11-04T03:38:06.142Z,96076.00
2022-11-04T03:40:33.060Z,96086.00
2022-11-04T03:43:21.524Z,96087.00
2022-11-04T03:45:48.872Z,96075.00
2022-11-04T03:48:15.770Z,96076.00
2022-11-04T03:50:48.367Z,96070.00
2022-11-04T03:53:22.027Z,96082.00
2022-11-04T03:55:54.738Z,96087.00
2022-11-04T03:58:58.468Z,96076.00
2022-11-04T04:01:43.730Z,96075.00
2022-11-04T04:04:32.442Z,96072.00
2022-11-04T04:07:12.998Z,96081.00
2022-11-04T04:09:46.561Z,96079.00
2022-11-04T04:12:29.003Z,96084.00
2022-11-04T04:15:08.424Z,96093.00
2022-11-04T04:17:43.452Z,96085.00
2022-11-04T04:20:19.660Z,96090.00
2022-11-04T04:23:03.311Z,96094.00
2022-11-04T04:25:51.493Z,96092.00
2022-11-04T04:28:19.666Z,96092.00
2022-11-04T04:30:46.783Z,96090.00
2022-11-04T04:33:18.621Z,96085.00
2022-11-04T04:35:53.298Z,96086.00
2022-11-04T04:38:41.490Z,96091.00
2022-11-04T04:41:50.017Z,96093.00
2022-11-04T04:44:46.647Z,96087.00
2022-11-04T04:47:41.383Z,96089.00
2022-11-04T04:50:11.189Z,96086.00
2022-11-04T04:52:42.603Z,96075.00
2022-11-04T04:55:09.968Z,96069.00
2022-11-04T04:57:36.790Z,96065.00
2022-11-04T05:00:06.424Z,96064.00
2022-11-04T05:02:33.280Z,96056.00
2022-11-04T05:05:01.219Z,96053.00
2022-11-04T05:07:28.178Z,96038.00
2022-11-04T05:09:54.924Z,96044.00
2022-11-04T05:12:21.903Z,96031.00
2022-11-04T05:14:48.690Z,96034.00
2022-11-04T05:17:15.732Z,96019.00
2022-11-04T05:19:42.498Z,96028.00
2022-11-04T05:22:09.237Z,96020.00
2022-11-04T05:24:35.948Z,96024.00
2022-11-04T05:27:02.682Z,96029.00
2022-11-04T05:29:29.815Z,96022.00
2022-11-04T05:31:57.205Z,96024.00
2022-11-04T05:34:23.930Z,96023.00
2022-11-04T05:36:50.708Z,96018.00
2022-11-04T05:39:17.491Z,96015.00
2022-11-04T05:41:44.234Z,96022.00
2022-11-04T05:44:11.078Z,96019.00
2022-11-04T05:46:38.486Z,96027.00
2022-11-04T05:49:05.514Z,96032.00
2022-11-04T05:51:32.912Z,96020.00
2022-11-04T05:54:00.421Z,96019.00
2022-11-04T05:56:27.229Z,96022.00
2022-11-04T05:58:54.198Z,96019.00
2022-11-04T06:01:47.001Z,96009.00
2022-11-04T06:04:18.096Z,95997.00
2022-11-04T06:06:45.164Z,95987.00
2022-11-04T06:09:12.069Z,95992.00
2022-11-04T06:11:39.436Z,95979.00
2022-11-04T06:14:06.380Z,95980.00
2022-11-04T06:16:33.118Z,95990.00
2022-11-04T06:19:03.448Z,96002.00
2022-11-04T06:21:34.472Z,95995.00
2022-11-04T06:24:02.168Z,95996.00
2022-11-04T06:26:30.900Z,95989.00
2022-11-04T06:28:58.291Z,95997.00
2022-11-04T06:31:25.600Z,96002.00
2022-11-04T06:33:52.346Z,96011.00
2022-11-04T06:36:19.116Z,96018.00
2022-11-04T06:38:45.876Z,96019.00
2022-11-04T06:41:15.632Z,96021.00
2022-11-04T06:43:42.623Z,96023.00
2022-11-04T06:46:34.920Z,96012.00
2022-11-04T06:49:01.925Z,96028.00
2022-11-04T06:51:29.404Z,96028.00
2022-11-04T06:53:56.161Z,96022.00
2022-11-04T06:56:22.982Z,96023.00
2022-11-04T06:58:50.961Z,96031.00
2022-11-04T07:01:22.324Z,96027.00
2022-11-04T07:03:54.470Z,96036.00
2022-11-04T07:06:22.049Z,96035.00
2022-11-04T07:08:51.159Z,96034.00
2022-11-04T07:11:20.981Z,96034.00
2022-11-04T07:13:48.993Z,96029.00
2022-11-04T07:16:16.345Z,96025.00
2022-11-04T07:18:43.216Z,96034.00
2022-11-04T07:21:11.446Z,96018.00
2022-11-04T07:23:38.746Z,96021.00
2022-11-04T07:26:08.479Z,96032.00
2022-11-04T07:28:35.478Z,96032.00
2022-11-04T07:31:03.645Z,96032.00
2022-11-04T07:33:30.397Z,96033.00
2022-11-04T07:35:58.484Z,96036.00
2022-11-04T07:38:25.518Z,96033.00
2022-11-04T07:40:52.266Z,96027.00
2022-11-04T07:43:19.018Z,96031.00
2022-11-04T07:45:45.865Z,96024.00
2022-11-04T07:48:12.652Z,96032.00
2022-11-04T07:50:40.547Z,96022.00
2022-11-04T07:53:08.416Z,96021.00
2022-11-04T07:55:43.130Z,96021.00
2022-11-04T07:58:10.487Z,96023.00
2022-11-04T08:00:37.211Z,96021.00
2022-11-04T08:03:04.035Z,96012.00
2022-11-04T08:05:30.820Z,96017.00
2022-11-04T08:07:57.857Z,96011.00
2022-11-04T08:10:24.765Z,96000.00
2022-11-04T08:12:52.675Z,95995.00
2022-11-04T08:15:19.519Z,95998.00
2022-11-04T08:17:46.254Z,95992.00
2022-11-04T08:20:13.035Z,95980.00
2022-11-04T08:22:39.983Z,95986.00
2022-11-04T08:25:07.392Z,95980.00
2022-11-04T08:27:34.860Z,95985.00
2022-11-04T08:30:01.638Z,95987.00
2022-11-04T08:32:28.448Z,95982.00
2022-11-04T08:34:55.199Z,95976.00
2022-11-04T08:37:21.951Z,95982.00
2022-11-04T08:39:48.685Z,95985.00
2022-11-04T08:42:15.437Z,95989.00
2022-11-04T08:44:42.807Z,95991.00
2022-11-04T08:47:10.190Z,95981.00
2022-11-04T08:49:41.002Z,96000.00
2022-11-04T08:52:07.766Z,95993.00
2022-11-04T08:54:34.492Z,95992.00
2022-11-04T08:57:02.412Z,95994.00
2022-11-04T08:59:29.190Z,95997.00
2022-11-04T09:01:56.010Z,95994.00
2022-11-04T09:04:23.090Z,95997.00
2022-11-04T09:06:51.067Z,95998.00
2022-11-04T09:09:18.880Z,96012.00
2022-11-04T09:11:46.775Z,96013.00
2022-11-04T09:14:14.034Z,96007.00
2022-11-04T09:16:41.770Z,96012.00
2022-11-04T09:19:09.154Z,96005.00
2022-11-04T09:21:35.926Z,96012.00
2022-11-04T09:24:02.862Z,96021.00
2022-11-04T09:26:30.117Z,96010.00
2022-11-04T09:28:58.537Z,96022.00
2022-11-04T09:31:30.672Z,96021.00
2022-11-04T09:33:57.546Z,96020.00
2022-11-04T09:36:24.434Z,96023.00
2022-11-04T09:38:51.862Z,96028.00
2022-11-04T09:41:40.481Z,96027.00
2022-11-04T09:44:28.102Z,96018.00
2022-11-04T09:47:00.987Z,96024.00
2022-11-04T09:49:33.952Z,96026.00
2022-11-04T09:52:07.580Z,96035.00
2022-11-04T09:54:48.377Z,96023.00
2022-11-04T09:57:19.772Z,96031.00
2022-11-04T09:59:48.100Z,96036.00
2022-11-04T10:02:45.709Z,96032.00
2022-11-04T10:05:33.577Z,96034.00
2022-11-04T10:08:43.443Z,96028.00
2022-11-04T10:11:39.115Z,96026.00
2022-11-04T10:14:50.593Z,96020.00
2022-11-04T10:17:43.255Z,96023.00
2022-11-04T10:20:46.651Z,96024.00
2022-11-04T10:23:34.707Z,96022.00
2022-11-04T10:26:27.933Z,96014.00
2022-11-04T10:29:05.019Z,96015.00
2022-11-04T10:31:32.085Z,96010.00
2022-11-04T10:34:12.666Z,96008.00
2022-11-04T10:36:40.742Z,96009.00
2022-11-04T10:39:28.050Z,96002.00
2022-11-04T10:41:55.193Z,96000.00
2022-11-04T10:44:34.909Z,96005.00
2022-11-04T10:47:33.200Z,96004.00
2022-11-04T10:50:30.319Z,96000.00
2022-11-04T10:53:25.456Z,96009.00
2022-11-04T10:56:17.044Z,96012.00
2022-11-04T10:58:46.990Z,96001.00
2022-11-04T11:01:33.766Z,96007.00
2022-11-04T11:04:02.283Z,96004.00
2022-11-04T11:06:31.153Z,96005.00
2022-11-04T11:09:12.868Z,96003.00
2022-11-04T11:11:50.778Z,96001.00
2022-11-04T11:14:29.315Z,96006.00
2022-11-04T11:16:57.894Z,95999.00
2022-11-04T11:19:25.957Z,95998.00
2022-11-04T11:21:56.023Z,95999.00
2022-11-04T11:24:30.658Z,96000.00
2022-11-04T11:27:01.488Z,96000.00
2022-11-04T11:29:40.469Z,96011.00
2022-11-04T11:32:27.990Z,95999.00
2022-11-04T11:34:54.925Z,95994.00
2022-11-04T11:37:25.717Z,95992.00
2022-11-04T11:39:52.686Z,95983.00
2022-11-04T11:42:20.445Z,95991.00
2022-11-04T11:44:53.447Z,95988.00
2022-11-04T11:47:30.494Z,95994.00
2022-11-04T11:50:34.472Z,96000.00
2022-11-04T11:53:19.585Z,95985.00
2022-11-04T11:56:02.847Z,96000.00
2022-11-04T12:01:37.897Z,95987.00
2022-11-04T12:10:50.468Z,95994.00
2022-11-04T12:13:31.402Z,95991.00
2022-11-04T12:16:26.238Z,95985.00
2022-11-04T12:18:58.679Z,95990.00
2022-11-04T12:21:33.459Z,95986.00
2022-11-04T12:24:18.505Z,95977.00
2022-11-04T12:27:19.952Z,95987.00
2022-11-04T12:30:03.523Z,95986.00
2022-11-04T12:32:55.331Z,95983.00
2022-11-04T12:35:47.001Z,95984.00
2022-11-04T12:39:00.986Z,95990.00
2022-11-04T12:42:19.089Z,95985.00
2022-11-04T12:44:38.575Z,95987.00
2022-11-04T12:47:31.919Z,95988.00
2022-11-04T12:50:31.268Z,95991.00
2022-11-04T12:53:52.188Z,95993.00
2022-11-04T12:56:22.630Z,95994.00
2022-11-04T12:59:44.019Z,96005.00
2022-11-04T13:02:30.649Z,96005.00
2022-11-04T13:05:28.189Z,96005.00
2022-11-04T13:08:25.126Z,96002.00
2022-11-04T13:11:22.710Z,96005.00
2022-11-04T13:14:21.197Z,96003.00
2022-11-04T13:16:54.476Z,96005.00
2022-11-04T13:19:32.818Z,95999.00
2022-11-04T13:22:07.698Z,95997.00
2022-11-04T13:24:39.134Z,96005.00
2022-11-04T13:27:19.432Z,95995.00
2022-11-04T13:29:47.430Z,95997.00
2022-11-04T13:32:26.354Z,95999.00
2022-11-04T13:35:31.845Z,95996.00
2022-11-04T13:38:12.574Z,96008.00
2022-11-04T13:40:45.485Z,96007.00
2022-11-04T13:43:39.154Z,95997.00
2022-11-04T13:46:08.894Z,96005.00
2022-11-04T13:48:50.635Z,96009.00
2022-11-04T13:51:19.140Z,96011.00
2022-11-04T13:53:47.271Z,96003.00
2022-11-04T13:56:35.865Z,96002.00
2022-11-04T13:59:18.534Z,96010.00
2022-11-04T14:01:45.512Z,96014.00
2022-11-04T14:04:31.432Z,96019.00
2022-11-04T14:07:01.918Z,96029.00
2022-11-04T14:09:43.895Z,96023.00
2022-11-04T14:12:10.560Z,96020.00
2022-11-04T14:14:50.033Z,96021.00
2022-11-04T14:17:35.210Z,96031.00
2022-11-04T14:20:05.160Z,96027.00
2022-11-04T14:22:50.689Z,96027.00
2022-11-04T14:25:39.884Z,96027.00
2022-11-04T14:28:09.544Z,96037.00
2022-11-04T14:31:03.919Z,96047.00
2022-11-04T14:33:53.721Z,96049.00
2022-11-04T14:36:20.637Z,96050.00
2022-11-04T14:38:57.157Z,96057.00
2022-11-04T14:41:51.476Z,96051.00
2022-11-04T14:44:38.309Z,96051.00
2022-11-04T14:47:25.220Z,96061.00
2022-11-04T14:50:04.508Z,96065.00
2022-11-04T14:52:58.365Z,96063.00
2022-11-04T14:55:32.790Z,96067.00
2022-11-04T14:58:25.177Z,96057.00
2022-11-04T15:00:56.165Z,96065.00
2022-11-04T15:04:09.335Z,96077.00
2022-11-04T15:06:13.421Z,96075.00
2022-11-04T15:08:45.426Z,96082.00
2022-11-04T15:11:41.514Z,96080.00
2022-11-04T15:14:21.612Z,96088.00
2022-11-04T15:16:53.367Z,96092.00
2022-11-04T15:19:35.818Z,96102.00
2022-11-04T15:22:05.346Z,96093.00
2022-11-04T15:24:32.954Z,96098.00
2022-11-04T15:27:05.505Z,96104.00
2022-11-04T15:29:32.957Z,96111.00
2022-11-04T15:32:05.095Z,96104.00
2022-11-04T15:34:33.865Z,96108.00
2022-11-04T15:37:05.573Z,96113.00
2022-11-04T15:39:43.386Z,96111.00
2022-11-04T15:42:59.675Z,96115.00
2022-11-04T15:45:39.141Z,96122.00
2022-11-04T15:48:28.342Z,96127.00
2022-11-04T15:51:10.639Z,96119.00
2022-11-04T15:54:01.057Z,96131.00
2022-11-04T15:56:35.551Z,96136.00
2022-11-04T15:59:02.829Z,96141.00
2022-11-04T16:01:29.879Z,96136.00
2022-11-04T16:03:59.366Z,96143.00
2022-11-04T16:06:38.540Z,96148.00
2022-11-04T16:09:22.977Z,96144.00
2022-11-04T16:12:17.595Z,96144.00
2022-11-04T16:14:53.475Z,96150.00
2022-11-04T16:17:21.246Z,96147.00
2022-11-04T16:20:05.966Z,96157.00
2022-11-04T16:22:38.801Z,96162.00
2022-11-04T16:25:12.354Z,96161.00
2022-11-04T16:27:39.747Z,96167.00
2022-11-04T16:30:21.778Z,96179.00
2022-11-04T16:32:54.575Z,96182.00
2022-11-04T16:35:28.942Z,96187.00
2022-11-04T16:37:56.449Z,96187.00
2022-11-04T16:40:24.616Z,96179.00
2022-11-04T16:42:53.101Z,96192.00
2022-11-04T16:45:34.034Z,96203.00
2022-11-04T16:48:00.925Z,96207.00
2022-11-04T16:50:29.125Z,96217.00
2022-11-04T16:52:56.229Z,96216.00
2022-11-04T16:55:24.205Z,96213.00
2022-11-04T16:58:04.729Z,96214.00
2022-11-04T17:00:33.065Z,96234.00
2022-11-04T17:03:21.433Z,96237.00
2022-11-04T17:05:50.969Z,96248.00
2022-11-04T17:08:17.949Z,96253.00
2022-11-04T17:10:44.778Z,96256.00
2022-11-04T17:13:12.672Z,96264.00
2022-11-04T17:15:40.534Z,96263.00
2022-11-04T17:18:07.498Z,96275.00
2022-11-04T17:20:34.257Z,96276.00
2022-11-04T17:23:00.996Z,96273.00
2022-11-04T17:25:30.123Z,96281.00
2022-11-04T17:27:56.926Z,96291.00
2022-11-04T17:30:24.507Z,96286.00
2022-11-04T17:32:51.641Z,96292.00
2022-11-04T17:35:18.890Z,96294.00
2022-11-04T17:37:46.377Z,96298.00
2022-11-04T17:40:18.418Z,96304.00
2022-11-04T17:43:10.325Z,96309.00
2022-11-04T17:45:41.342Z,96317.00
2022-11-04T17:48:10.073Z,96326.00
2022-11-04T17:50:39.591Z,96319.00
2022-11-04T17:53:06.409Z,96320.00
2022-11-04T17:55:39.409Z,96331.00
2022-11-04T17:58:06.232Z,96335.00
2022-11-04T18:00:32.964Z,96336.00
2022-11-04T18:02:59.710Z,96339.00
2022-11-04T18:05:26.461Z,96343.00
2022-11-04T18:07:54.956Z,96341.00
2022-11-04T18:10:21.836Z,96349.00
2022-11-04T18:12:48.616Z,96351.00
2022-11-04T18:15:18.906Z,96350.00
2022-11-04T18:17:46.370Z,96365.00
2022-11-04T18:20:15.761Z,96368.00
2022-11-04T18:22:43.741Z,96371.00
2022-11-04T18:25:11.898Z,96368.00
2022-11-04T18:27:38.969Z,96365.00
2022-11-04T18:30:06.650Z,96375.00
2022-11-04T18:32:33.638Z,96378.00
2022-11-04T18:35:00.438Z,96389.00
2022-11-04T18:37:28.597Z,96393.00
2022-11-04T18:39:55.422Z,96402.00
2022-11-04T18:42:23.170Z,96391.00
2022-11-04T18:44:50.182Z,96403.00
2022-11-04T18:47:17.906Z,96400.00
2022-11-04T18:49:44.809Z,96407.00
2022-11-04T18:52:11.557Z,96405.00
2022-11-04T18:54:38.485Z,96408.00
2022-11-04T18:57:05.316Z,96406.00
2022-11-04T18:59:32.295Z,96418.00
2022-11-04T19:01:59.179Z,96423.00
2022-11-04T19:04:26.084Z,96421.00
2022-11-04T19:06:52.907Z,96432.00
2022-11-04T19:12:25.800Z,96431.00
2022-11-04T19:14:53.120Z,96432.00
2022-11-04T19:17:20.547Z,96436.00
2022-11-04T19:19:47.346Z,96446.00
2022-11-04T19:22:14.589Z,96443.00
2022-11-04T19:24:41.331Z,96451.00
2022-11-04T19:27:08.214Z,96452.00
2022-11-04T19:29:35.002Z,96455.00
2022-11-04T19:32:01.837Z,96464.00
2022-11-04T19:34:28.620Z,96469.00
2022-11-04T19:36:55.510Z,96475.00
2022-11-04T19:39:22.251Z,96473.00
2022-11-04T19:42:07.604Z,96477.00
2022-11-04T19:44:34.345Z,96473.00
2022-11-04T19:47:01.085Z,96479.00
2022-11-04T19:49:31.355Z,96487.00
2022-11-04T19:51:59.537Z,96496.00
2022-11-04T19:54:28.174Z,96492.00
2022-11-04T19:56:54.917Z,96494.00
2022-11-04T19:59:21.740Z,96506.00
2022-11-04T20:01:48.611Z,96508.00
2022-11-04T20:04:15.393Z,96506.00
2022-11-04T20:06:42.264Z,96510.00
2022-11-04T20:09:10.915Z,96517.00
2022-11-04T20:12:00.241Z,96523.00
2022-11-04T20:14:28.757Z,96530.00
2022-11-04T20:16:55.843Z,96524.00
2022-11-04T20:19:23.464Z,96532.00
2022-11-04T20:21:50.756Z,96533.00
2022-11-04T20:24:17.964Z,96535.00
2022-11-04T20:26:46.586Z,96546.00
2022-11-04T20:29:15.858Z,96548.00
2022-11-04T20:31:43.242Z,96546.00
2022-11-04T20:34:12.749Z,96546.00
2022-11-04T20:36:40.234Z,96556.00
2022-11-04T20:39:19.019Z,96565.00
2022-11-04T20:41:46.817Z,96566.00
2022-11-04T20:44:15.032Z,96569.00
2022-11-04T20:46:43.132Z,96569.00
2022-11-04T20:49:11.665Z,96565.00
2022-11-04T20:51:48.697Z,96573.00
2022-11-04T20:54:18.986Z,96579.00
2022-11-04T20:56:45.713Z,96574.00
2022-11-04T20:59:14.009Z,96571.00
2022-11-04T21:01:43.252Z,96587.00
2022-11-04T21:04:19.981Z,96589.00
2022-11-04T21:06:49.170Z,96598.00
2022-11-04T21:09:18.730Z,96602.00
2022-11-04T21:11:45.810Z,96605.00
2022-11-04T21:14:15.796Z,96599.00
2022-11-04T21:16:42.623Z,96611.00
2022-11-04T21:19:11.909Z,96609.00
2022-11-04T21:21:41.795Z,96614.00
2022-11-04T21:24:12.133Z,96616.00
2022-11-04T21:26:38.947Z,96617.00
2022-11-04T21:29:08.113Z,96613.00
2022-11-04T21:31:36.450Z,96624.00
2022-11-04T21:34:04.167Z,96620.00
2022-11-04T21:36:31.937Z,96620.00
2022-11-04T21:38:59.144Z,96628.00
2022-11-04T21:41:29.403Z,96629.00
2022-11-04T21:43:58.803Z,96633.00
2022-11-04T21:46:30.185Z,96622.00
2022-11-04T21:48:56.981Z,96631.00
2022-11-04T21:51:31.077Z,96635.00
2022-11-04T21:53:59.394Z,96641.00
2022-11-04T21:56:33.364Z,96634.00
2022-11-04T21:59:00.912Z,96646.00
2022-11-04T22:01:29.860Z,96647.00
2022-11-04T22:03:59.715Z,96642.00
2022-11-04T22:06:50.160Z,96642.00
2022-11-04T22:09:17.319Z,96646.00
2022-11-04T22:11:52.844Z,96655.00
2022-11-04T22:14:24.799Z,96657.00
2022-11-04T22:16:55.750Z,96649.00
2022-11-04T22:19:27.282Z,96646.00
2022-11-04T22:21:54.008Z,96652.00
2022-11-04T22:24:21.326Z,96657.00
2022-11-04T22:26:48.539Z,96665.00
2022-11-04T22:29:16.929Z,96678.00
2022-11-04T22:31:47.853Z,96667.00
2022-11-04T22:34:14.959Z,96682.00
2022-11-04T22:36:44.804Z,96679.00
2022-11-04T22:39:17.104Z,96685.00
2022-11-04T22:41:48.022Z,96689.00
2022-11-04T22:44:15.627Z,96683.00
2022-11-04T22:46:43.316Z,96689.00
2022-11-04T22:49:19.844Z,96680.00
2022-11-04T22:51:47.349Z,96692.00
2022-11-04T22:54:14.161Z,96688.00
2022-11-04T22:56:41.233Z,96677.00
2022-11-04T22:59:08.033Z,96679.00
2022-11-04T23:01:35.038Z,96690.00
2022-11-04T23:04:02.055Z,96697.00
2022-11-04T23:06:28.921Z,96694.00
2022-11-04T23:08:59.967Z,96687.00
2022-11-04T23:11:48.024Z,96701.00
2022-11-04T23:14:36.560Z,96708.00
2022-11-04T23:17:33.190Z,96700.00
2022-11-04T23:20:00.055Z,96698.00
2022-11-04T23:22:45.082Z,96701.00
2022-11-04T23:25:12.911Z,96699.00
2022-11-04T23:28:15.715Z,96698.00
2022-11-04T23:30:51.918Z,96706.00
2022-11-04T23:33:18.656Z,96701.00
2022-11-04T23:36:06.902Z,96709.00
2022-11-04T23:38:35.287Z,96711.00
2022-11-04T23:41:24.619Z,96710.00
2022-11-04T23:43:51.588Z,96712.00
2022-11-04T23:46:42.230Z,96712.00
2022-11-04T23:49:45.028Z,96713.00
2022-11-04T23:52:30.081Z,96715.00
2022-11-04T23:55:15.187Z,96720.00
2022-11-04T23:58:00.302Z,96719.00
